Time;durP1;ratioP1;P1;durP2;ratioP2;P2;SDS_P1;SDS_P2;PMS_P1;PMS_P2;Temp;Humidity;BMP_temperature;BMP_pressure;BME280_temperature;BME280_humidity;BME280_pressure;Samples;Min_cycle;Max_cycle;Signal;HPM_P1;HPM_P2
2023/07/08 00:00:47;;;;;;;;;10.00;9.67;;;;;27.66;44.64;100460.47;4845567;29;45461;-74
2023/07/08 00:03:13;;;;;;;;;11.00;9.00;;;;;27.64;44.78;100456.97;4843825;29;45356;-74
2023/07/08 00:05:39;;;;;;;;;10.00;10.00;;;;;27.61;44.71;100457.16;4846645;29;45771;-74
2023/07/08 00:08:04;;;;;;;;;9.00;9.00;;;;;27.62;44.46;100452.56;4846572;29;45770;-74
2023/07/08 00:10:29;;;;;;;;;11.00;10.67;;;;;27.58;44.50;100451.88;4845083;29;45413;-73
2023/07/08 00:12:57;;;;;;;;;14.00;12.33;;;;;27.63;44.81;100457.03;4845221;29;45381;-75
2023/07/08 00:15:32;;;;;;;;;10.67;10.67;;;;;27.64;44.32;100456.97;4845706;29;45476;-74
2023/07/08 00:18:00;;;;;;;;;14.33;13.67;;;;;27.56;44.62;100470.22;4844806;29;45455;-75
2023/07/08 00:20:35;;;;;;;;;15.67;15.67;;;;;27.64;44.90;100470.63;4845325;29;44874;-75
2023/07/08 00:23:03;;;;;;;;;13.67;13.67;;;;;27.51;44.62;100472.31;4845452;29;45429;-74
2023/07/08 00:25:30;;;;;;;;;13.00;11.33;;;;;27.55;45.01;100473.91;4845664;29;45402;-74
2023/07/08 00:27:55;;;;;;;;;17.00;13.33;;;;;27.53;44.66;100470.38;4845026;29;45513;-74
2023/07/08 00:30:22;;;;;;;;;12.67;12.67;;;;;27.58;44.95;100470.13;4845105;29;45431;-75
2023/07/08 00:32:56;;;;;;;;;13.00;13.00;;;;;27.52;45.17;100454.97;4843988;29;45496;-74
2023/07/08 00:35:35;;;;;;;;;14.33;12.33;;;;;27.58;45.54;100473.72;4844827;29;45380;-73
2023/07/08 00:38:02;;;;;;;;;15.33;15.33;;;;;27.46;45.80;100474.47;4827758;29;48129;-75
2023/07/08 00:40:32;;;;;;;;;15.33;13.67;;;;;27.53;45.59;100490.41;4828084;29;45352;-74
2023/07/08 00:43:05;;;;;;;;;14.67;14.67;;;;;27.53;45.26;100486.78;4844298;29;45503;-73
2023/07/08 00:45:41;;;;;;;;;17.33;17.00;;;;;27.49;45.67;100480.63;4844488;29;45365;-74
2023/07/08 00:48:09;;;;;;;;;17.67;16.67;;;;;27.50;45.88;100489.72;4827081;29;45565;-75
2023/07/08 00:50:34;;;;;;;;;22.67;21.33;;;;;27.38;45.51;100493.19;4825918;29;45456;-75
2023/07/08 00:53:36;;;;;;;;;20.00;18.67;;;;;27.48;45.13;100487.06;4826236;29;45433;-74
2023/07/08 00:56:29;;;;;;;;;18.67;18.67;;;;;27.49;45.22;100485.19;4768884;29;45570;-74
2023/07/08 00:59:04;;;;;;;;;22.00;20.67;;;;;27.42;45.89;100481.09;4752567;29;47405;-74
2023/07/08 01:01:34;;;;;;;;;29.33;20.67;;;;;27.39;45.60;100478.53;4768962;29;45541;-74
2023/07/08 01:04:06;;;;;;;;;24.00;22.67;;;;;27.40;45.41;100474.84;4768841;29;45560;-74
2023/07/08 01:06:39;;;;;;;;;21.67;20.67;;;;;27.30;45.78;100466.31;4769260;29;45999;-74
2023/07/08 01:09:07;;;;;;;;;24.67;23.67;;;;;27.33;45.25;100479.81;4768113;29;45555;-73
2023/07/08 01:11:35;;;;;;;;;29.00;23.33;;;;;27.34;45.52;100484.28;4768605;29;45500;-74
2023/07/08 01:14:03;;;;;;;;;29.00;24.00;;;;;27.30;46.11;100474.53;4753176;29;45469;-74
2023/07/08 01:16:28;;;;;;;;;25.33;25.00;;;;;27.25;45.38;100484.84;4768699;29;45356;-75
2023/07/08 01:19:02;;;;;;;;;25.33;24.33;;;;;27.32;45.49;100484.38;4768452;29;45458;-75
2023/07/08 01:21:46;;;;;;;;;27.00;26.00;;;;;27.33;45.66;100494.34;4768436;29;45390;-74
2023/07/08 01:24:11;;;;;;;;;29.33;27.33;;;;;27.17;46.27;100481.63;4769534;29;45576;-74
2023/07/08 01:26:41;;;;;;;;;25.33;25.33;;;;;27.24;45.98;100488.53;4769529;29;45514;-74
2023/07/08 01:29:07;;;;;;;;;30.33;29.00;;;;;27.15;45.98;100481.75;4775915;29;45506;-74
2023/07/08 01:31:34;;;;;;;;;22.33;20.33;;;;;27.13;46.72;100479.09;4825997;29;45484;-74
2023/07/08 01:34:00;;;;;;;;;16.67;16.67;;;;;27.06;46.04;100482.28;4824767;29;45551;-74
2023/07/08 01:36:29;;;;;;;;;13.33;12.67;;;;;27.09;46.19;100488.44;4809209;29;45344;-74
2023/07/08 01:38:55;;;;;;;;;19.00;17.33;;;;;27.03;46.16;100487.94;4825500;29;45478;-74
2023/07/08 01:41:20;;;;;;;;;15.67;13.67;;;;;27.02;46.41;100497.09;4808510;29;45504;-74
2023/07/08 01:43:46;;;;;;;;;15.33;15.33;;;;;27.02;46.23;100506.13;4825003;29;45504;-74
2023/07/08 01:46:21;;;;;;;;;11.33;11.33;;;;;27.10;45.63;100517.50;4825154;29;45402;-74
2023/07/08 01:48:55;;;;;;;;;11.33;11.00;;;;;27.10;45.69;100583.00;4829720;29;46183;-74
2023/07/08 01:51:23;;;;;;;;;14.00;10.67;;;;;27.18;46.20;100641.75;4843981;29;45490;-74
2023/07/08 01:53:49;;;;;;;;;10.00;7.00;;;;;27.07;46.21;100620.53;4844210;29;45863;-75
2023/07/08 01:56:18;;;;;;;;;9.67;9.67;;;;;27.16;45.71;100625.47;4827250;29;45380;-74
2023/07/08 01:58:43;;;;;;;;;9.67;9.67;;;;;27.11;45.98;100623.00;4842342;29;48232;-74
2023/07/08 02:01:10;;;;;;;;;9.00;8.33;;;;;27.17;46.21;100627.25;4826945;29;45760;-75
2023/07/08 02:03:35;;;;;;;;;8.00;8.00;;;;;27.19;45.55;100633.50;4842590;29;45441;-74
2023/07/08 02:06:02;;;;;;;;;10.33;10.00;;;;;27.20;46.13;100637.09;4842544;29;45416;-75
2023/07/08 02:08:30;;;;;;;;;13.33;11.33;;;;;27.23;46.08;100635.13;4842290;29;47189;-74
2023/07/08 02:10:57;;;;;;;;;9.00;9.00;;;;;27.15;46.56;100645.56;4843072;29;45520;-74
2023/07/08 02:13:24;;;;;;;;;9.67;8.33;;;;;27.10;46.25;100634.88;4843594;29;44755;-75
2023/07/08 02:15:52;;;;;;;;;8.33;8.33;;;;;27.17;46.76;100627.25;4843672;29;45403;-75
2023/07/08 02:18:20;;;;;;;;;6.33;6.00;;;;;27.04;47.27;100620.69;4843446;29;46568;-75
2023/07/08 02:20:47;;;;;;;;;8.00;8.00;;;;;27.04;47.34;100618.84;4843407;29;45498;-74
2023/07/08 02:23:14;;;;;;;;;10.00;9.00;;;;;27.05;48.00;100611.56;4843539;29;45679;-74
2023/07/08 02:25:39;;;;;;;;;8.67;8.33;;;;;26.99;47.66;100611.91;4843975;29;45851;-75
2023/07/08 02:28:04;;;;;;;;;5.67;5.67;;;;;26.99;48.14;100617.38;4843093;29;46289;-74
2023/07/08 02:30:30;;;;;;;;;7.33;7.33;;;;;26.97;47.38;100609.25;4843120;29;45349;-74
2023/07/08 02:32:58;;;;;;;;;6.00;4.00;;;;;26.97;47.71;100594.75;4843732;29;45475;-74
2023/07/08 02:35:26;;;;;;;;;7.00;7.00;;;;;27.02;48.02;100595.34;4843811;29;45621;-74
2023/07/08 02:37:52;;;;;;;;;5.33;4.67;;;;;26.89;48.38;100589.72;4841623;29;47191;-74
2023/07/08 02:40:17;;;;;;;;;4.67;3.33;;;;;26.82;48.68;100570.06;4842617;29;45381;-76
2023/07/08 02:42:43;;;;;;;;;2.33;2.33;;;;;26.80;48.75;100563.81;4843437;29;45416;-75
2023/07/08 02:45:08;;;;;;;;;4.00;4.00;;;;;26.74;49.31;100553.22;4843221;29;57596;-74
2023/07/08 02:47:33;;;;;;;;;1.00;1.00;;;;;26.70;49.76;100546.19;4843680;29;45446;-75
2023/07/08 02:49:59;;;;;;;;;3.00;3.00;;;;;26.63;49.35;100540.22;4851897;29;45453;-75
2023/07/08 02:52:24;;;;;;;;;3.67;3.67;;;;;26.60;49.31;100544.94;4843756;29;45393;-74
2023/07/08 02:54:50;;;;;;;;;2.67;2.67;;;;;26.59;49.34;100545.94;4843876;29;45435;-75
2023/07/08 02:57:15;;;;;;;;;4.00;3.00;;;;;26.54;49.08;100552.50;4843598;29;45435;-74
2023/07/08 02:59:40;;;;;;;;;2.67;1.33;;;;;26.46;49.20;100537.50;4844121;29;45481;-74
2023/07/08 03:02:06;;;;;;;;;2.67;2.67;;;;;26.43;49.50;100530.38;4843532;29;45795;-74
2023/07/08 03:04:31;;;;;;;;;4.67;3.00;;;;;26.43;49.34;100535.81;4845830;29;45320;-74
2023/07/08 03:06:56;;;;;;;;;3.00;3.00;;;;;26.39;49.59;100531.50;4845194;29;45437;-74
2023/07/08 03:09:22;;;;;;;;;3.00;2.33;;;;;26.29;49.59;100530.25;4846495;29;45926;-74
2023/07/08 03:11:47;;;;;;;;;3.00;3.00;;;;;26.23;49.13;100541.50;4846654;29;45434;-74
2023/07/08 03:14:13;;;;;;;;;2.67;2.67;;;;;26.24;49.19;100548.69;4845795;29;45444;-75
2023/07/08 03:16:38;;;;;;;;;3.67;2.00;;;;;26.27;49.72;100549.41;4841983;29;47843;-73
2023/07/08 03:19:04;;;;;;;;;2.33;2.33;;;;;26.29;50.03;100552.06;4843168;29;45772;-74
2023/07/08 03:21:31;;;;;;;;;2.00;2.00;;;;;26.21;49.73;100529.81;4844488;29;45479;-74
2023/07/08 03:23:57;;;;;;;;;2.00;2.00;;;;;26.17;49.70;100525.47;4848103;29;45424;-75
2023/07/08 03:26:24;;;;;;;;;1.25;1.25;;;;;26.18;49.46;100533.59;4848017;29;45386;-74
2023/07/08 03:28:51;;;;;;;;;2.00;2.00;;;;;26.18;49.45;100535.41;4849178;29;45445;-75
2023/07/08 03:31:16;;;;;;;;;1.50;1.50;;;;;26.17;49.61;100541.84;4862346;29;45482;-74
2023/07/08 03:33:42;;;;;;;;;1.00;1.00;;;;;26.17;49.48;100539.09;4848808;29;45670;-76
2023/07/08 03:36:12;;;;;;;;;1.00;1.00;;;;;26.26;49.23;100519.53;4846678;29;45499;-75
2023/07/08 03:38:38;;;;;;;;;1.67;1.33;;;;;26.15;49.25;100520.09;4861488;29;45502;-75
2023/07/08 03:41:05;;;;;;;;;4.00;2.75;;;;;26.12;49.57;100518.44;4844597;29;45390;-75
2023/07/08 03:43:30;;;;;;;;;2.00;2.00;;;;;25.99;49.29;100511.88;4846235;29;44776;-74
2023/07/08 03:45:56;;;;;;;;;3.33;2.67;;;;;26.02;49.54;100506.28;4858893;29;47581;-76
2023/07/08 03:48:21;;;;;;;;;1.67;1.67;;;;;26.04;49.19;100482.53;4845314;29;45438;-74
2023/07/08 03:50:47;;;;;;;;;2.00;2.00;;;;;26.09;49.24;100479.56;4845048;29;45472;-75
2023/07/08 03:53:13;;;;;;;;;1.25;1.25;;;;;26.13;49.08;100483.88;4845772;29;45464;-74
2023/07/08 03:55:38;;;;;;;;;2.50;1.50;;;;;26.13;48.77;100476.56;4843867;29;47436;-76
2023/07/08 03:58:03;;;;;;;;;1.00;1.00;;;;;26.08;49.47;100473.22;4828082;29;45480;-74
2023/07/08 04:00:29;;;;;;;;;2.00;2.00;;;;;26.01;49.87;100471.78;4845608;29;45803;-74
2023/07/08 04:02:54;;;;;;;;;1.00;1.00;;;;;25.93;49.68;100460.44;4843456;29;45514;-75
2023/07/08 04:05:29;;;;;;;;;0.67;0.67;;;;;25.91;49.49;100449.63;4844758;29;45401;-74
2023/07/08 04:07:55;;;;;;;;;1.67;1.67;;;;;25.89;49.92;100439.75;4845395;29;45487;-74
2023/07/08 04:10:20;;;;;;;;;2.50;2.50;;;;;25.82;50.24;100439.19;4845226;29;45482;-74
2023/07/08 04:12:46;;;;;;;;;2.67;2.67;;;;;25.74;50.04;100442.34;4843591;29;45307;-74
2023/07/08 04:15:12;;;;;;;;;1.33;1.33;;;;;25.67;49.89;100451.81;4844697;29;46150;-75
2023/07/08 04:17:45;;;;;;;;;3.33;2.00;;;;;25.75;50.33;100455.00;4843715;29;45413;-74
2023/07/08 04:20:14;;;;;;;;;2.33;2.00;;;;;25.76;50.28;100466.78;4844905;29;45421;-75
2023/07/08 04:22:40;;;;;;;;;4.33;2.00;;;;;25.72;50.43;100463.31;4844930;29;45450;-74
2023/07/08 04:25:05;;;;;;;;;3.00;3.00;;;;;25.72;50.40;100454.28;4845038;29;46308;-75
2023/07/08 04:27:31;;;;;;;;;0.67;0.67;;;;;25.75;49.81;100463.19;4844891;29;45475;-74
2023/07/08 04:29:57;;;;;;;;;2.00;2.00;;;;;25.79;50.53;100476.63;4843950;29;45485;-74
2023/07/08 04:32:24;;;;;;;;;1.67;1.67;;;;;25.79;50.36;100472.03;4845382;29;45447;-75
2023/07/08 04:34:51;;;;;;;;;3.00;3.00;;;;;25.80;50.08;100457.47;4844002;29;46083;-75
2023/07/08 04:37:16;;;;;;;;;4.33;2.33;;;;;25.80;50.47;100462.03;4843360;29;45439;-75
2023/07/08 04:39:42;;;;;;;;;2.33;0.67;;;;;25.79;50.17;100476.63;4844977;29;45468;-75
2023/07/08 04:42:08;;;;;;;;;3.00;2.00;;;;;25.81;50.26;100481.00;4845245;29;45374;-75
2023/07/08 04:44:33;;;;;;;;;3.00;3.00;;;;;25.90;50.70;100487.88;4828843;29;46860;-75
2023/07/08 04:46:59;;;;;;;;;3.67;3.67;;;;;25.95;50.60;100496.66;4828636;29;45419;-74
2023/07/08 04:49:27;;;;;;;;;4.33;2.00;;;;;25.99;51.01;100495.53;4845099;29;45949;-75
2023/07/08 04:51:53;;;;;;;;;3.00;3.00;;;;;25.97;50.58;100512.94;4844629;29;45604;-75
2023/07/08 04:54:18;;;;;;;;;4.00;2.67;;;;;26.05;50.63;100507.94;4844563;29;46040;-74
2023/07/08 04:56:46;;;;;;;;;1.67;1.67;;;;;26.12;50.78;100510.25;4843108;29;45525;-74
2023/07/08 04:59:17;;;;;;;;;1.33;1.33;;;;;26.17;50.97;100512.72;4844314;29;45708;-75
2023/07/08 05:01:43;;;;;;;;;1.00;1.00;;;;;26.13;50.64;100505.69;4844487;29;45545;-75
2023/07/08 05:04:12;;;;;;;;;2.67;1.67;;;;;26.22;50.48;100516.09;4842815;29;46294;-74
2023/07/08 05:06:37;;;;;;;;;4.00;2.67;;;;;26.13;51.34;100524.75;4827933;29;45642;-74
2023/07/08 05:09:04;;;;;;;;;2.00;2.00;;;;;26.13;51.04;100541.13;4844044;29;45358;-75
2023/07/08 05:11:30;;;;;;;;;3.67;3.67;;;;;26.04;51.12;100531.59;4844343;29;45422;-74
2023/07/08 05:13:55;;;;;;;;;1.25;1.25;;;;;26.05;50.88;100537.91;4844392;29;45416;-74
2023/07/08 05:16:22;;;;;;;;;2.25;2.25;;;;;26.13;51.46;100541.13;4827020;29;45396;-74
2023/07/08 05:18:48;;;;;;;;;2.75;2.75;;;;;26.03;51.46;100532.53;4844065;29;44869;-75
2023/07/08 05:21:14;;;;;;;;;2.50;2.50;;;;;26.03;51.56;100528.94;4844262;29;45453;-74
2023/07/08 05:23:40;;;;;;;;;3.75;3.75;;;;;26.01;51.72;100536.31;4843873;29;46428;-74
2023/07/08 05:26:08;;;;;;;;;2.67;2.67;;;;;26.09;51.59;100542.25;4826962;29;45490;-74
2023/07/08 05:28:33;;;;;;;;;4.33;2.33;;;;;26.01;51.57;100537.19;4843837;29;45326;-74
2023/07/08 05:30:59;;;;;;;;;2.67;2.67;;;;;25.99;51.10;100539.13;4843775;29;45898;-74
2023/07/08 05:33:26;;;;;;;;;1.33;1.33;;;;;26.09;51.48;100548.56;4843468;29;45510;-74
2023/07/08 05:35:53;;;;;;;;;2.75;2.75;;;;;26.10;51.31;100547.63;4844220;29;45428;-74
2023/07/08 05:38:18;;;;;;;;;1.00;1.00;;;;;26.12;51.29;100544.81;4845570;29;45456;-74
2023/07/08 05:40:49;;;;;;;;;2.67;2.67;;;;;26.21;51.51;100562.50;4828489;29;46024;-74
2023/07/08 05:43:15;;;;;;;;;0.67;0.67;;;;;26.17;51.07;100585.44;4844820;29;45915;-75
2023/07/08 05:45:42;;;;;;;;;2.67;2.67;;;;;26.28;51.39;100588.50;4844192;29;45437;-75
2023/07/08 05:48:08;;;;;;;;;2.33;2.33;;;;;26.21;51.31;100587.91;4844315;29;45508;-74
2023/07/08 05:50:33;;;;;;;;;2.67;2.67;;;;;26.23;52.05;100590.56;4843814;29;45425;-74
2023/07/08 05:52:58;;;;;;;;;2.67;2.67;;;;;26.20;52.12;100588.91;4843405;29;45959;-74
2023/07/08 05:55:24;;;;;;;;;3.33;3.33;;;;;26.13;53.06;100592.91;4841221;29;45403;-74
2023/07/08 05:57:50;;;;;;;;;4.00;4.00;;;;;26.12;53.22;100602.94;4843343;29;45903;-74
2023/07/08 06:00:16;;;;;;;;;5.00;5.00;;;;;26.00;54.06;100609.03;4842956;29;45432;-74
2023/07/08 06:02:41;;;;;;;;;2.67;2.67;;;;;25.98;54.78;100618.25;4841498;29;46845;-74
2023/07/08 06:05:07;;;;;;;;;3.67;3.00;;;;;25.99;54.91;100620.88;4843025;29;45416;-74
2023/07/08 06:07:32;;;;;;;;;2.25;2.25;;;;;26.14;55.50;100622.81;4842625;29;45449;-74
2023/07/08 06:09:59;;;;;;;;;2.67;2.00;;;;;26.43;55.56;100620.38;4843161;29;45425;-74
2023/07/08 06:12:25;;;;;;;;;2.00;1.50;;;;;26.55;54.90;100643.38;4826758;29;45377;-74
2023/07/08 06:14:53;;;;;;;;;4.00;3.00;;;;;26.71;54.91;100640.72;4826617;29;45609;-74
2023/07/08 06:17:18;;;;;;;;;5.75;5.00;;;;;26.88;54.21;100637.94;4843182;29;45475;-74
2023/07/08 06:19:47;;;;;;;;;1.75;1.75;;;;;26.98;53.83;100648.34;4843852;29;45424;-74
2023/07/08 06:22:12;;;;;;;;;2.67;2.67;;;;;27.07;53.54;100647.84;4843922;29;45521;-74
2023/07/08 06:24:38;;;;;;;;;3.67;2.67;;;;;27.10;53.37;100647.66;4844430;29;45300;-74
2023/07/08 06:27:03;;;;;;;;;2.67;2.67;;;;;27.17;53.11;100654.53;4844025;29;45904;-75
2023/07/08 06:29:29;;;;;;;;;0.33;0.33;;;;;27.23;53.54;100662.41;4842799;29;45329;-74
2023/07/08 06:31:54;;;;;;;;;4.00;4.00;;;;;27.31;53.15;100656.53;4843330;29;45711;-74
2023/07/08 06:34:22;;;;;;;;;3.67;3.67;;;;;27.50;52.60;100667.25;4826697;29;45339;-74
2023/07/08 06:36:48;;;;;;;;;2.67;2.67;;;;;27.67;52.09;100679.91;4841835;29;45536;-74
2023/07/08 06:39:13;;;;;;;;;2.33;2.33;;;;;27.87;51.78;100684.25;4826316;29;45425;-75
2023/07/08 06:41:38;;;;;;;;;3.33;3.33;;;;;28.08;50.98;100685.72;4843249;29;45383;-74
2023/07/08 06:44:04;;;;;;;;;1.50;0.00;;;;;28.30;50.43;100692.63;4843842;29;45425;-75
2023/07/08 06:46:30;;;;;;;;;3.67;3.67;;;;;28.47;49.17;100681.53;4843400;29;45493;-74
2023/07/08 06:48:55;;;;;;;;;1.33;1.33;;;;;28.65;48.61;100673.19;4841344;29;45762;-74
2023/07/08 06:51:21;;;;;;;;;2.33;2.33;;;;;28.76;48.46;100673.38;4843580;29;45352;-74
2023/07/08 06:53:46;;;;;;;;;2.33;2.33;;;;;28.85;47.96;100685.63;4843544;29;45451;-74
2023/07/08 06:56:11;;;;;;;;;2.00;2.00;;;;;28.98;47.85;100700.25;4843349;29;45707;-73
2023/07/08 06:58:37;;;;;;;;;1.33;1.33;;;;;29.05;47.66;100700.78;4848247;29;45411;-75
2023/07/08 07:01:02;;;;;;;;;1.67;1.67;;;;;29.17;47.33;100702.75;4847327;29;47021;-75
2023/07/08 07:03:27;;;;;;;;;2.33;2.33;;;;;29.08;46.84;100697.81;4847828;29;45426;-74
2023/07/08 07:05:53;;;;;;;;;2.00;2.00;;;;;29.11;46.49;100714.09;4847516;29;45234;-75
2023/07/08 07:08:18;;;;;;;;;1.00;1.00;;;;;29.18;46.70;100717.31;4846699;29;45497;-75
2023/07/08 07:10:44;;;;;;;;;2.00;2.00;;;;;29.22;46.53;100713.41;4844616;29;46809;-75
2023/07/08 07:13:09;;;;;;;;;3.67;3.00;;;;;29.30;46.71;100709.19;4845550;29;45421;-75
2023/07/08 07:15:35;;;;;;;;;4.00;3.00;;;;;29.38;46.53;100714.16;4847532;29;45503;-74
2023/07/08 07:18:01;;;;;;;;;2.00;2.00;;;;;29.57;46.14;100723.91;4847696;29;45543;-74
2023/07/08 07:20:35;;;;;;;;;1.00;1.00;;;;;29.70;45.44;100728.50;4847523;29;45437;-74
2023/07/08 07:23:01;;;;;;;;;3.00;2.00;;;;;29.57;44.79;100722.09;4847150;29;45440;-74
2023/07/08 07:25:26;;;;;;;;;2.33;2.33;;;;;29.55;45.38;100724.03;4847705;29;45803;-74
2023/07/08 07:27:52;;;;;;;;;3.33;2.67;;;;;29.60;45.25;100716.38;4830442;29;45578;-75
2023/07/08 07:30:18;;;;;;;;;3.00;2.00;;;;;29.66;45.01;100715.09;4847555;29;45957;-75
2023/07/08 07:32:44;;;;;;;;;3.33;3.33;;;;;29.65;45.01;100719.72;4847489;29;45526;-75
2023/07/08 07:35:14;;;;;;;;;4.67;4.67;;;;;29.70;44.92;100728.50;4848107;29;45469;-75
2023/07/08 07:37:42;;;;;;;;;2.00;2.00;;;;;29.82;45.04;100731.44;4848406;29;45644;-75
2023/07/08 07:40:14;;;;;;;;;2.67;1.00;;;;;30.01;44.58;100737.44;4848372;29;45543;-75
2023/07/08 07:42:43;;;;;;;;;1.67;1.67;;;;;30.02;44.57;100739.22;4848322;29;45352;-75
2023/07/08 07:45:09;;;;;;;;;2.67;2.67;;;;;29.97;44.77;100733.13;4848131;29;45515;-74
2023/07/08 07:47:36;;;;;;;;;2.67;2.67;;;;;29.99;44.89;100736.66;4847016;29;45511;-75
2023/07/08 07:50:06;;;;;;;;;2.00;2.00;;;;;29.96;44.81;100722.28;4851961;29;46950;-74
2023/07/08 07:52:32;;;;;;;;;3.00;1.67;;;;;29.94;44.93;100733.34;4847411;29;45555;-74
2023/07/08 07:55:03;;;;;;;;;3.00;3.00;;;;;30.24;44.86;100735.88;4847196;29;45400;-74
2023/07/08 07:57:28;;;;;;;;;3.33;3.33;;;;;30.28;44.58;100731.06;4845911;29;45454;-74
2023/07/08 07:59:53;;;;;;;;;3.00;3.00;;;;;30.28;44.50;100742.03;4847264;29;46070;-74
2023/07/08 08:02:19;;;;;;;;;3.00;3.00;;;;;30.37;44.72;100740.56;4844772;29;52720;-74
2023/07/08 08:04:44;;;;;;;;;2.33;2.33;;;;;30.56;44.94;100742.88;4846896;29;45388;-73
2023/07/08 08:07:10;;;;;;;;;2.33;2.33;;;;;30.70;43.82;100751.03;4846181;29;46215;-74
2023/07/08 08:09:36;;;;;;;;;2.33;2.33;;;;;30.80;43.87;100749.38;4847356;29;45641;-75
2023/07/08 08:12:03;;;;;;;;;3.00;3.00;;;;;30.96;43.61;100740.09;4847168;29;45464;-75
2023/07/08 08:14:28;;;;;;;;;3.00;3.00;;;;;31.03;44.21;100749.69;4846843;29;45562;-75
2023/07/08 08:16:53;;;;;;;;;3.00;3.00;;;;;31.16;43.57;100750.53;4846548;29;45703;-75
2023/07/08 08:19:19;;;;;;;;;4.33;4.00;;;;;31.20;43.87;100752.06;4845376;29;47633;-75
2023/07/08 08:21:44;;;;;;;;;5.00;5.00;;;;;31.23;42.93;100754.59;4846682;29;45499;-75
2023/07/08 08:24:13;;;;;;;;;5.33;5.33;;;;;31.27;42.94;100766.25;4847042;29;45435;-75
2023/07/08 08:26:38;;;;;;;;;2.00;2.00;;;;;31.36;43.08;100761.97;4847411;29;45376;-74
2023/07/08 08:29:03;;;;;;;;;3.00;3.00;;;;;31.40;42.91;100763.50;4845964;29;46712;-75
2023/07/08 08:31:31;;;;;;;;;3.00;3.00;;;;;31.54;43.20;100770.75;4845588;29;45349;-74
2023/07/08 08:33:56;;;;;;;;;3.00;3.00;;;;;31.64;42.77;100771.84;4846475;29;45516;-74
2023/07/08 08:36:21;;;;;;;;;4.33;3.67;;;;;31.83;42.46;100774.06;4846929;29;45443;-74
2023/07/08 08:38:47;;;;;;;;;3.67;3.67;;;;;31.94;41.98;100782.41;4846987;29;45945;-74
2023/07/08 08:41:14;;;;;;;;;5.00;4.00;;;;;31.98;41.74;100778.44;4846231;29;45636;-74
2023/07/08 08:43:42;;;;;;;;;5.33;4.00;;;;;31.90;41.95;100775.38;4844981;29;45533;-75
2023/07/08 08:46:23;;;;;;;;;5.00;5.00;;;;;31.94;42.70;100771.41;4846420;29;45395;-74
2023/07/08 08:49:03;;;;;;;;;3.33;3.33;;;;;32.04;42.24;100772.50;4846368;29;45510;-74
2023/07/08 08:51:32;;;;;;;;;5.00;5.00;;;;;32.02;42.67;100768.13;4847084;29;45445;-75
2023/07/08 08:53:59;;;;;;;;;3.33;3.33;;;;;32.02;42.03;100769.00;4847659;29;44861;-75
2023/07/08 08:56:27;;;;;;;;;4.33;4.00;;;;;32.22;42.46;100772.97;4846216;29;45584;-75
2023/07/08 08:59:06;;;;;;;;;5.00;5.00;;;;;32.30;42.03;100783.41;4845339;29;45756;-74
2023/07/08 09:01:31;;;;;;;;;5.33;5.00;;;;;32.23;41.92;100779.34;4844843;29;45435;-75
2023/07/08 09:04:05;;;;;;;;;3.33;3.33;;;;;32.31;41.60;100776.88;4829122;29;45465;-75
2023/07/08 09:06:34;;;;;;;;;4.00;4.00;;;;;32.22;41.84;100785.88;4845720;29;45427;-75
2023/07/08 09:09:16;;;;;;;;;4.33;3.67;;;;;32.23;41.55;100782.97;4828455;29;45530;-74
2023/07/08 09:11:59;;;;;;;;;4.00;4.00;;;;;32.21;42.02;100793.22;4828053;29;44839;-75
2023/07/08 09:14:30;;;;;;;;;2.67;2.00;;;;;32.22;41.78;100783.13;4845460;29;45349;-75
2023/07/08 09:17:22;;;;;;;;;6.00;6.00;;;;;32.26;42.02;100776.38;4828248;29;45390;-74
2023/07/08 09:20:06;;;;;;;;;3.67;3.67;;;;;32.22;42.38;100777.63;4844054;29;45764;-74
2023/07/08 09:22:46;;;;;;;;;5.33;5.33;;;;;32.50;42.09;100768.09;4828821;29;45470;-75
2023/07/08 09:25:49;;;;;;;;;5.00;5.00;;;;;32.76;42.36;100771.56;4844296;29;45432;-74
2023/07/08 09:28:14;;;;;;;;;3.33;3.33;;;;;32.84;41.77;100780.13;4845248;29;45495;-75
2023/07/08 09:30:40;;;;;;;;;3.33;3.33;;;;;33.00;41.96;100784.41;4828818;29;45781;-75
2023/07/08 09:33:08;;;;;;;;;6.67;6.00;;;;;33.27;41.56;100773.97;4844951;29;45425;-75
2023/07/08 09:35:49;;;;;;;;;3.00;3.00;;;;;33.44;40.95;100775.31;4845431;29;45330;-75
2023/07/08 09:38:17;;;;;;;;;5.00;4.00;;;;;33.37;40.94;100774.09;4828483;29;45598;-75
2023/07/08 09:40:53;;;;;;;;;4.00;4.00;;;;;33.40;40.29;100778.47;4828128;29;47147;-74
2023/07/08 09:43:38;;;;;;;;;2.00;2.00;;;;;33.38;40.50;100780.47;4844670;29;45315;-75
2023/07/08 09:46:03;;;;;;;;;5.67;3.67;;;;;33.22;40.84;100781.72;4829073;29;45448;-75
2023/07/08 09:48:34;;;;;;;;;4.33;4.33;;;;;33.21;41.49;100776.34;4845450;29;45758;-75
2023/07/08 09:51:01;;;;;;;;;5.33;4.33;;;;;33.07;41.35;100778.28;4844418;29;45408;-76
2023/07/08 09:53:35;;;;;;;;;3.00;3.00;;;;;32.82;41.60;100771.13;4828052;29;45492;-75
2023/07/08 09:56:03;;;;;;;;;4.00;4.00;;;;;32.86;41.86;100772.63;4842809;29;45475;-75
2023/07/08 09:58:41;;;;;;;;;3.67;3.67;;;;;32.87;41.30;100781.75;4844266;29;45385;-75
2023/07/08 10:01:27;;;;;;;;;5.67;5.67;;;;;32.83;41.36;100764.59;4842363;29;46224;-75
2023/07/08 10:04:03;;;;;;;;;6.33;6.00;;;;;32.77;41.78;100765.06;4826990;29;45414;-75
2023/07/08 10:06:32;;;;;;;;;5.67;5.33;;;;;32.68;41.68;100768.53;4843090;29;45788;-75
2023/07/08 10:09:03;;;;;;;;;4.67;4.67;;;;;32.66;41.75;100757.69;4844599;29;45362;-75
2023/07/08 10:11:38;;;;;;;;;4.67;4.67;;;;;32.62;41.72;100749.75;4827264;29;47267;-75
2023/07/08 10:14:21;;;;;;;;;6.00;6.00;;;;;32.65;41.62;100755.03;4843975;29;45478;-75
2023/07/08 10:16:48;;;;;;;;;7.00;7.00;;;;;32.61;41.91;100762.66;4843947;29;45515;-75
2023/07/08 10:19:16;;;;;;;;;5.00;4.67;;;;;32.61;41.47;100764.53;4844072;29;45766;-75
2023/07/08 10:22:05;;;;;;;;;4.33;4.33;;;;;32.64;41.57;100767.94;4843340;29;45246;-75
2023/07/08 10:24:40;;;;;;;;;6.00;6.00;;;;;32.53;41.70;100766.97;4844046;29;45413;-74
2023/07/08 10:27:20;;;;;;;;;4.00;4.00;;;;;32.52;42.04;100767.97;4842608;29;45540;-74
2023/07/08 10:29:53;;;;;;;;;6.00;6.00;;;;;32.49;41.83;100769.97;4844040;29;44863;-75
2023/07/08 10:32:18;;;;;;;;;5.67;5.67;;;;;32.47;41.60;100774.69;4842927;29;45896;-74
2023/07/08 10:34:57;;;;;;;;;6.00;6.00;;;;;32.55;41.39;100779.66;4844262;29;45437;-75
2023/07/08 10:37:31;;;;;;;;;4.00;4.00;;;;;32.54;41.36;100775.13;4844758;29;45725;-76
2023/07/08 10:40:14;;;;;;;;;5.67;4.33;;;;;32.61;42.04;100775.53;4845312;29;44795;-75
2023/07/08 10:43:03;;;;;;;;;4.00;4.00;;;;;32.62;41.32;100766.28;4844445;29;46382;-75
2023/07/08 10:45:38;;;;;;;;;6.00;6.00;;;;;32.63;41.77;100768.91;4843485;29;45391;-75
2023/07/08 10:48:35;;;;;;;;;5.00;5.00;;;;;32.66;41.62;100773.28;4843789;29;45393;-76
2023/07/08 10:51:16;;;;;;;;;5.33;5.00;;;;;32.65;41.31;100777.94;4843756;29;45340;-75
2023/07/08 10:53:41;;;;;;;;;6.67;6.33;;;;;32.50;41.61;100773.63;4843727;29;45458;-75
2023/07/08 10:56:36;;;;;;;;;5.67;4.67;;;;;32.56;41.86;100777.78;4843533;29;45388;-75
2023/07/08 10:59:34;;;;;;;;;6.33;5.67;;;;;32.59;41.68;100772.03;4844897;29;45285;-75
2023/07/08 11:02:17;;;;;;;;;5.33;5.33;;;;;32.63;41.25;100765.28;4805077;29;45018;-75
2023/07/08 11:04:59;;;;;;;;;5.33;5.33;;;;;32.67;41.35;100761.28;4804898;29;45490;-75
2023/07/08 11:07:35;;;;;;;;;1.00;1.00;;;;;32.57;41.58;100763.88;4789756;29;45392;-75
2023/07/08 11:10:10;;;;;;;;;4.33;4.33;;;;;32.58;41.72;100759.25;4805086;29;45936;-74
2023/07/08 11:12:53;;;;;;;;;5.67;5.67;;;;;32.61;42.22;100759.91;4805616;29;45527;-75
2023/07/08 11:15:30;;;;;;;;;6.33;5.33;;;;;32.64;41.42;100750.50;4804985;29;46936;-75
2023/07/08 11:18:17;;;;;;;;;7.33;6.00;;;;;32.76;41.78;100752.28;4804706;29;45395;-75
2023/07/08 11:21:00;;;;;;;;;5.00;5.00;;;;;32.79;41.55;100743.78;4805077;29;45722;-75
2023/07/08 11:23:33;;;;;;;;;3.00;2.67;;;;;32.81;41.43;100752.81;4806201;29;45535;-74
2023/07/08 11:26:05;;;;;;;;;6.00;6.00;;;;;32.82;41.20;100757.34;4805176;29;46113;-74
2023/07/08 11:28:30;;;;;;;;;7.00;5.00;;;;;32.68;40.72;100749.25;4804699;29;45603;-75
2023/07/08 11:31:02;;;;;;;;;5.33;5.33;;;;;32.77;40.43;100748.56;4805221;29;45445;-74